Time;durP1;ratioP1;P1;durP2;ratioP2;P2;SDS_P1;SDS_P2;PMS_P1;PMS_P2;Temp;Humidity;BMP_temperature;BMP_pressure;BME280_temperature;BME280_humidity;BME280_pressure;Samples;Min_cycle;Max_cycle;Signal;HPM_P1;HPM_P2
2023/08/08 00:02:08;;;;;;;;;;;13.70;99.90;;;;;;5114397;28;20360;-64
2023/08/08 00:04:35;;;;;;;;;;;13.70;99.90;;;;;;5115287;28;19924;-63
2023/08/08 00:07:01;;;;;;;;;;;13.70;99.90;;;;;;5113351;28;19928;-64
2023/08/08 00:09:28;;;;;;;;;;;13.60;99.90;;;;;;5115370;28;20384;-63
2023/08/08 00:11:56;;;;;;;;;;;13.60;99.90;;;;;;5114901;28;19969;-62
2023/08/08 00:14:23;;;;;;;;;;;13.60;99.90;;;;;;5097342;28;19976;-63
2023/08/08 00:16:51;;;;;;;;;;;13.60;99.90;;;;;;5096429;28;19983;-63
2023/08/08 00:19:18;;;;;;;;;;;13.50;99.90;;;;;;5114194;28;19931;-63
2023/08/08 00:21:45;;;;;;;;;;;13.40;99.90;;;;;;5096428;28;19931;-64
2023/08/08 00:24:12;;;;;;;;;;;13.40;99.90;;;;;;5096596;28;19934;-63
2023/08/08 00:26:38;;;;;;;;;;;13.40;99.90;;;;;;5096131;28;19932;-63
2023/08/08 00:29:06;;;;;;;;;;;13.40;99.90;;;;;;5096854;28;19923;-63
2023/08/08 00:31:32;;;;;;;;;;;13.30;99.90;;;;;;5096577;28;19970;-63
2023/08/08 00:34:00;;;;;;;;;;;13.30;99.90;;;;;;5114623;28;19924;-64
2023/08/08 00:36:27;;;;;;;;;;;13.30;99.90;;;;;;5096530;28;19973;-64
2023/08/08 00:38:54;;;;;;;;;;;13.30;99.90;;;;;;5115024;28;19934;-64
2023/08/08 00:41:21;;;;;;;;;;;13.30;99.90;;;;;;5114124;28;19924;-64
2023/08/08 00:43:49;;;;;;;;;;;13.30;99.90;;;;;;5096450;28;20011;-64
2023/08/08 00:46:21;;;;;;;;;;;13.20;99.90;;;;;;5095818;28;19939;-64
2023/08/08 00:48:48;;;;;;;;;;;13.20;99.90;;;;;;5096438;28;19981;-64
2023/08/08 00:51:17;;;;;;;;;;;13.20;99.90;;;;;;5096131;28;19953;-63
2023/08/08 00:53:45;;;;;;;;;;;13.20;99.90;;;;;;5113703;28;19932;-64
2023/08/08 00:56:12;;;;;;;;;;;13.20;99.90;;;;;;5112452;28;19927;-63
2023/08/08 00:58:40;;;;;;;;;;;13.10;99.90;;;;;;5095759;28;19931;-63
2023/08/08 01:01:07;;;;;;;;;;;13.10;99.90;;;;;;5113348;28;19977;-63
2023/08/08 01:03:34;;;;;;;;;;;13.10;99.90;;;;;;5114191;28;19923;-63
2023/08/08 01:06:04;;;;;;;;;;;13.10;99.90;;;;;;5113954;28;19924;-63
2023/08/08 01:08:36;;;;;;;;;;;13.10;99.90;;;;;;5113441;28;19928;-63
2023/08/08 01:11:03;;;;;;;;;;;13.10;99.90;;;;;;5095436;28;19923;-63
2023/08/08 01:13:31;;;;;;;;;;;13.10;99.90;;;;;;5094723;28;19924;-63
2023/08/08 01:15:59;;;;;;;;;;;13.10;99.90;;;;;;5094934;28;19924;-63
2023/08/08 01:18:27;;;;;;;;;;;13.10;99.90;;;;;;5095703;28;19983;-63
2023/08/08 01:20:54;;;;;;;;;;;13.00;99.90;;;;;;5095775;28;20303;-63
2023/08/08 01:23:27;;;;;;;;;;;13.10;99.90;;;;;;5095021;28;20280;-63
2023/08/08 01:25:55;;;;;;;;;;;13.90;99.90;;;;;;5095659;28;19934;-64
2023/08/08 01:28:22;;;;;;;;;;;13.10;99.90;;;;;;5095023;28;20448;-64
2023/08/08 01:30:49;;;;;;;;;;;13.00;99.90;;;;;;5113335;28;19924;-64
2023/08/08 01:33:16;;;;;;;;;;;13.10;99.90;;;;;;5095427;28;19981;-63
2023/08/08 01:35:44;;;;;;;;;;;13.00;99.90;;;;;;5113076;28;20865;-63
2023/08/08 01:38:13;;;;;;;;;;;13.00;99.90;;;;;;5113346;28;19923;-63
2023/08/08 01:40:41;;;;;;;;;;;13.10;99.90;;;;;;5113721;28;19924;-64
2023/08/08 01:43:09;;;;;;;;;;;13.10;99.90;;;;;;5094408;28;20394;-62
2023/08/08 01:45:37;;;;;;;;;;;13.10;99.90;;;;;;5113394;28;19928;-63
2023/08/08 01:48:07;;;;;;;;;;;13.10;99.90;;;;;;5113563;28;19927;-63
2023/08/08 01:50:33;;;;;;;;;;;13.10;99.90;;;;;;5094423;28;19927;-63
2023/08/08 01:53:00;;;;;;;;;;;13.20;99.90;;;;;;5095189;28;19931;-64
2023/08/08 01:55:27;;;;;;;;;;;13.20;99.90;;;;;;5113203;28;19923;-63
2023/08/08 01:57:54;;;;;;;;;;;13.20;99.90;;;;;;5094517;28;20440;-63
2023/08/08 02:00:22;;;;;;;;;;;13.30;99.90;;;;;;5112873;28;20303;-63
2023/08/08 02:02:49;;;;;;;;;;;13.30;99.90;;;;;;5111151;28;19923;-63
2023/08/08 02:05:15;;;;;;;;;;;13.30;99.90;;;;;;5112798;28;19931;-62
2023/08/08 02:07:42;;;;;;;;;;;13.30;99.90;;;;;;5111188;28;19923;-63
2023/08/08 02:10:09;;;;;;;;;;;13.40;99.90;;;;;;5112917;28;19923;-63
2023/08/08 02:12:36;;;;;;;;;;;13.40;99.90;;;;;;5110076;28;19931;-63
2023/08/08 02:15:04;;;;;;;;;;;13.40;99.90;;;;;;5113051;28;19924;-63
2023/08/08 02:17:32;;;;;;;;;;;13.50;99.90;;;;;;5112923;28;19946;-63
2023/08/08 02:19:59;;;;;;;;;;;13.50;99.90;;;;;;5112543;28;20395;-63
2023/08/08 02:22:26;;;;;;;;;;;13.50;99.90;;;;;;5110507;28;19938;-64
2023/08/08 02:24:53;;;;;;;;;;;13.50;99.90;;;;;;5111653;28;19931;-64
2023/08/08 02:27:19;;;;;;;;;;;13.50;99.90;;;;;;5094330;28;20014;-62
2023/08/08 02:29:46;;;;;;;;;;;13.50;99.90;;;;;;5112944;28;19931;-64
2023/08/08 02:32:13;;;;;;;;;;;13.50;99.90;;;;;;5093572;28;19932;-63
2023/08/08 02:34:42;;;;;;;;;;;13.50;99.90;;;;;;5112669;28;19939;-62
2023/08/08 02:37:08;;;;;;;;;;;13.50;99.90;;;;;;5094072;28;19924;-63
2023/08/08 02:39:35;;;;;;;;;;;13.50;99.90;;;;;;5093878;28;20265;-64
2023/08/08 02:42:02;;;;;;;;;;;13.50;99.90;;;;;;5112394;28;19924;-63
2023/08/08 02:44:29;;;;;;;;;;;13.50;99.90;;;;;;5112199;28;20280;-63
2023/08/08 02:46:55;;;;;;;;;;;13.50;99.90;;;;;;5111904;28;19946;-63
2023/08/08 02:49:22;;;;;;;;;;;13.50;99.90;;;;;;5112599;28;20276;-63
2023/08/08 02:51:50;;;;;;;;;;;13.50;99.90;;;;;;5094135;28;19924;-63
2023/08/08 02:54:17;;;;;;;;;;;13.50;99.90;;;;;;5111556;28;19994;-63
2023/08/08 02:56:44;;;;;;;;;;;13.60;99.90;;;;;;5094359;28;19983;-63
2023/08/08 02:59:10;;;;;;;;;;;13.60;99.90;;;;;;5112046;28;19928;-63
2023/08/08 03:01:39;;;;;;;;;;;13.60;99.90;;;;;;5111696;28;20391;-63
2023/08/08 03:04:06;;;;;;;;;;;13.60;99.90;;;;;;5112568;28;19974;-63
2023/08/08 03:06:33;;;;;;;;;;;13.60;99.90;;;;;;5112474;28;19931;-64
2023/08/08 03:09:01;;;;;;;;;;;13.50;99.90;;;;;;5111500;28;19924;-64
2023/08/08 03:11:27;;;;;;;;;;;13.50;99.90;;;;;;5112105;28;20000;-63
2023/08/08 03:13:54;;;;;;;;;;;13.50;99.90;;;;;;5093726;28;19928;-64
2023/08/08 03:16:21;;;;;;;;;;;13.50;99.90;;;;;;5094074;28;20496;-63
2023/08/08 03:18:48;;;;;;;;;;;13.10;99.90;;;;;;5094161;28;19977;-64
2023/08/08 03:21:14;;;;;;;;;;;13.50;99.90;;;;;;5111380;28;19959;-62
2023/08/08 03:23:41;;;;;;;;;;;13.40;99.90;;;;;;5111206;28;19924;-63
2023/08/08 03:26:09;;;;;;;;;;;13.40;99.90;;;;;;5112297;28;19927;-63
2023/08/08 03:28:36;;;;;;;;;;;13.40;99.90;;;;;;5092866;28;19931;-63
2023/08/08 03:31:03;;;;;;;;;;;13.40;99.90;;;;;;5093564;28;19924;-63
2023/08/08 03:33:29;;;;;;;;;;;13.40;99.90;;;;;;5093614;28;19927;-62
2023/08/08 03:35:56;;;;;;;;;;;13.40;99.90;;;;;;5111350;28;19924;-61
2023/08/08 03:38:23;;;;;;;;;;;13.40;99.90;;;;;;5115094;28;19931;-62
2023/08/08 03:40:50;;;;;;;;;;;13.30;99.90;;;;;;5115390;28;19923;-64
2023/08/08 03:43:18;;;;;;;;;;;13.30;99.90;;;;;;5095343;28;19930;-64
2023/08/08 03:45:45;;;;;;;;;;;13.30;99.90;;;;;;5087472;28;19924;-64
2023/08/08 03:48:12;;;;;;;;;;;13.40;99.90;;;;;;5109237;28;19973;-65
2023/08/08 03:50:38;;;;;;;;;;;13.40;99.90;;;;;;5094551;28;20320;-64
2023/08/08 03:53:05;;;;;;;;;;;13.50;99.90;;;;;;5112858;28;19939;-64
2023/08/08 03:55:33;;;;;;;;;;;13.50;99.90;;;;;;5114487;28;19927;-64
2023/08/08 03:57:59;;;;;;;;;;;13.40;99.90;;;;;;5112760;28;19931;-64
2023/08/08 04:00:27;;;;;;;;;;;13.40;99.90;;;;;;5095869;28;20309;-64
2023/08/08 04:02:54;;;;;;;;;;;13.50;99.90;;;;;;5094827;28;19924;-63
2023/08/08 04:05:21;;;;;;;;;;;13.30;99.90;;;;;;5113399;28;19928;-63
2023/08/08 04:07:48;;;;;;;;;;;13.30;99.90;;;;;;5112515;28;20440;-64
2023/08/08 04:10:14;;;;;;;;;;;13.40;99.90;;;;;;5094133;28;19924;-64
2023/08/08 04:12:41;;;;;;;;;;;13.50;99.90;;;;;;5112108;28;20321;-64
2023/08/08 04:15:09;;;;;;;;;;;13.60;99.90;;;;;;5095012;28;19931;-64
2023/08/08 04:17:37;;;;;;;;;;;13.50;99.90;;;;;;5091754;28;20398;-65
2023/08/08 04:20:05;;;;;;;;;;;13.50;99.90;;;;;;5093734;28;19971;-65
2023/08/08 04:22:32;;;;;;;;;;;13.50;99.90;;;;;;5112173;28;19966;-65
2023/08/08 04:24:59;;;;;;;;;;;13.50;99.90;;;;;;5094865;28;19933;-65
2023/08/08 04:27:25;;;;;;;;;;;13.70;99.90;;;;;;5112697;28;19930;-66
2023/08/08 04:29:52;;;;;;;;;;;13.60;99.90;;;;;;5095507;28;19924;-64
2023/08/08 04:32:19;;;;;;;;;;;13.60;99.90;;;;;;5110032;28;19939;-64
2023/08/08 04:34:47;;;;;;;;;;;13.60;99.90;;;;;;5095655;28;19924;-64
2023/08/08 04:37:14;;;;;;;;;;;13.70;99.90;;;;;;5110477;28;19928;-64
2023/08/08 04:39:40;;;;;;;;;;;13.60;99.90;;;;;;5111838;28;19924;-65
2023/08/08 04:42:07;;;;;;;;;;;13.60;99.90;;;;;;5113645;28;19924;-64
2023/08/08 04:44:34;;;;;;;;;;;13.60;99.90;;;;;;5093581;28;20390;-64
2023/08/08 04:47:01;;;;;;;;;;;13.60;99.90;;;;;;5094776;28;19931;-64
2023/08/08 04:49:28;;;;;;;;;;;13.60;99.90;;;;;;5111415;28;20296;-64
2023/08/08 04:51:56;;;;;;;;;;;13.70;99.90;;;;;;5095026;28;19923;-63
2023/08/08 04:54:23;;;;;;;;;;;13.70;99.90;;;;;;5093568;28;19928;-63
2023/08/08 04:56:50;;;;;;;;;;;13.80;99.90;;;;;;5095609;28;19924;-63
2023/08/08 04:59:17;;;;;;;;;;;13.90;99.90;;;;;;5110403;28;19928;-63
2023/08/08 05:01:43;;;;;;;;;;;13.90;99.90;;;;;;5095052;28;20460;-67
2023/08/08 05:04:10;;;;;;;;;;;13.90;99.90;;;;;;5111146;28;19935;-63
2023/08/08 05:06:37;;;;;;;;;;;14.00;99.90;;;;;;5094073;28;20080;-63
2023/08/08 05:09:05;;;;;;;;;;;13.90;99.90;;;;;;5091975;28;19972;-63
2023/08/08 05:11:32;;;;;;;;;;;14.00;99.90;;;;;;5110899;28;20392;-63
2023/08/08 05:13:58;;;;;;;;;;;14.00;99.90;;;;;;5110248;28;19924;-64
2023/08/08 05:16:25;;;;;;;;;;;14.00;99.90;;;;;;5092309;28;19924;-65
2023/08/08 05:18:52;;;;;;;;;;;14.20;99.90;;;;;;5091374;28;19931;-63
2023/08/08 05:21:20;;;;;;;;;;;14.20;99.90;;;;;;5111439;28;19924;-63
2023/08/08 05:23:47;;;;;;;;;;;14.20;99.90;;;;;;5123982;27;19932;-64
2023/08/08 05:26:15;;;;;;;;;;;14.30;99.90;;;;;;5111928;28;19935;-64
2023/08/08 05:28:42;;;;;;;;;;;14.40;99.90;;;;;;5111616;28;19969;-64
2023/08/08 05:31:10;;;;;;;;;;;14.40;99.90;;;;;;5110538;28;19938;-64
2023/08/08 05:33:37;;;;;;;;;;;14.50;99.90;;;;;;5092497;28;19923;-63
2023/08/08 05:36:03;;;;;;;;;;;14.60;99.90;;;;;;5092088;28;19923;-64
2023/08/08 05:38:30;;;;;;;;;;;14.70;99.90;;;;;;5112804;28;20400;-64
2023/08/08 05:40:57;;;;;;;;;;;14.60;99.90;;;;;;5092919;28;19932;-63
2023/08/08 05:43:25;;;;;;;;;;;14.70;99.90;;;;;;5112044;28;20408;-62
2023/08/08 05:45:52;;;;;;;;;;;14.70;99.90;;;;;;5110765;28;19953;-64
2023/08/08 05:48:18;;;;;;;;;;;14.80;99.90;;;;;;5112304;28;20393;-63
2023/08/08 05:50:45;;;;;;;;;;;14.90;99.90;;;;;;5109918;28;19924;-63
2023/08/08 05:53:12;;;;;;;;;;;15.10;99.90;;;;;;5111839;28;19924;-64
2023/08/08 05:55:41;;;;;;;;;;;15.00;99.90;;;;;;5110914;28;19930;-64
2023/08/08 05:58:08;;;;;;;;;;;15.00;99.90;;;;;;5112042;28;20287;-64
2023/08/08 06:00:36;;;;;;;;;;;15.10;99.90;;;;;;5092583;28;19924;-62
2023/08/08 06:03:02;;;;;;;;;;;15.40;99.90;;;;;;5093550;28;19931;-63
2023/08/08 06:05:29;;;;;;;;;;;15.50;99.90;;;;;;5093017;28;19924;-63
2023/08/08 06:07:56;;;;;;;;;;;15.70;99.90;;;;;;5092379;28;20021;-63
2023/08/08 06:10:23;;;;;;;;;;;15.90;99.90;;;;;;5110888;28;19931;-63
2023/08/08 06:12:49;;;;;;;;;;;16.10;99.90;;;;;;5109373;28;19924;-63
2023/08/08 06:15:16;;;;;;;;;;;16.20;99.90;;;;;;5110132;28;19924;-63
2023/08/08 06:17:44;;;;;;;;;;;16.30;99.90;;;;;;5110089;28;19930;-63
2023/08/08 06:20:11;;;;;;;;;;;16.40;99.90;;;;;;5092678;28;19931;-64
2023/08/08 06:22:38;;;;;;;;;;;16.50;99.90;;;;;;5108694;28;19932;-64
2023/08/08 06:25:05;;;;;;;;;;;16.60;99.90;;;;;;5093287;28;20272;-63
2023/08/08 06:27:32;;;;;;;;;;;16.70;99.90;;;;;;5111109;28;19924;-63
2023/08/08 06:29:59;;;;;;;;;;;16.80;99.90;;;;;;5094424;28;20340;-65
2023/08/08 06:32:26;;;;;;;;;;;17.00;99.90;;;;;;5111699;28;19971;-62
2023/08/08 06:34:54;;;;;;;;;;;17.30;99.90;;;;;;5112321;28;19924;-63
2023/08/08 06:37:21;;;;;;;;;;;17.40;99.90;;;;;;5091264;28;19959;-63
2023/08/08 06:39:48;;;;;;;;;;;17.50;99.90;;;;;;5110365;28;19931;-63
2023/08/08 06:42:15;;;;;;;;;;;17.80;99.90;;;;;;5114042;27;19924;-63
2023/08/08 06:44:43;;;;;;;;;;;18.00;99.90;;;;;;5093907;28;20375;-63
2023/08/08 06:47:09;;;;;;;;;;;18.40;99.90;;;;;;5111704;28;20345;-62
2023/08/08 06:49:36;;;;;;;;;;;18.80;99.90;;;;;;5094325;28;20309;-63
2023/08/08 06:52:05;;;;;;;;;;;19.20;99.90;;;;;;5109466;28;19928;-62
2023/08/08 06:54:32;;;;;;;;;;;19.40;99.90;;;;;;5112356;28;20467;-63
2023/08/08 06:56:58;;;;;;;;;;;19.80;99.90;;;;;;5110862;28;19936;-63
2023/08/08 06:59:26;;;;;;;;;;;20.20;99.90;;;;;;5112112;28;19928;-62
2023/08/08 07:01:53;;;;;;;;;;;20.40;99.90;;;;;;5092601;28;19927;-62
2023/08/08 07:04:20;;;;;;;;;;;20.80;99.90;;;;;;5092970;28;19927;-63
2023/08/08 07:06:46;;;;;;;;;;;20.60;99.90;;;;;;5111504;28;19977;-63
2023/08/08 07:09:15;;;;;;;;;;;20.70;99.90;;;;;;5111696;28;19946;-63
2023/08/08 07:11:42;;;;;;;;;;;20.60;99.90;;;;;;5113824;28;19952;-63
2023/08/08 07:14:08;;;;;;;;;;;20.60;99.90;;;;;;5097696;28;19928;-63
2023/08/08 07:16:35;;;;;;;;;;;20.50;99.90;;;;;;5116544;28;19934;-63
2023/08/08 07:19:02;;;;;;;;;;;20.30;99.90;;;;;;5115312;28;20015;-64
2023/08/08 07:21:29;;;;;;;;;;;20.40;99.90;;;;;;5097732;28;19932;-63
2023/08/08 07:23:57;;;;;;;;;;;20.50;99.90;;;;;;5115106;28;20007;-63
2023/08/08 07:26:25;;;;;;;;;;;20.40;99.90;;;;;;5116370;28;19924;-63
2023/08/08 07:28:52;;;;;;;;;;;20.10;99.90;;;;;;5115954;28;19924;-63
2023/08/08 07:31:18;;;;;;;;;;;20.70;99.90;;;;;;5116092;28;20343;-63
2023/08/08 07:33:45;;;;;;;;;;;21.20;99.90;;;;;;5097811;28;19997;-63
2023/08/08 07:36:12;;;;;;;;;;;21.10;99.90;;;;;;5115697;28;20353;-63
2023/08/08 07:38:39;;;;;;;;;;;21.20;99.90;;;;;;5116270;28;19934;-63
2023/08/08 07:41:05;;;;;;;;;;;20.90;99.90;;;;;;5116140;28;19928;-63
2023/08/08 07:43:33;;;;;;;;;;;20.60;99.90;;;;;;5097029;28;19931;-63
2023/08/08 07:46:00;;;;;;;;;;;20.20;99.90;;;;;;5115987;28;19924;-63
2023/08/08 07:48:27;;;;;;;;;;;20.30;99.90;;;;;;5115582;28;19932;-64
2023/08/08 07:50:54;;;;;;;;;;;20.40;99.90;;;;;;5116127;28;19924;-64
2023/08/08 07:53:20;;;;;;;;;;;20.50;99.90;;;;;;5115948;28;19939;-63
2023/08/08 07:55:47;;;;;;;;;;;20.20;99.90;;;;;;5097152;28;19923;-63
2023/08/08 07:58:14;;;;;;;;;;;19.90;99.90;;;;;;5115612;28;19924;-64
2023/08/08 08:00:42;;;;;;;;;;;19.90;99.90;;;;;;5097612;28;19930;-63
2023/08/08 08:03:09;;;;;;;;;;;20.00;99.90;;;;;;5115194;28;19928;-64
2023/08/08 08:05:37;;;;;;;;;;;19.70;99.90;;;;;;5115764;28;19933;-64
2023/08/08 08:08:04;;;;;;;;;;;19.60;99.90;;;;;;5097402;28;19969;-63
2023/08/08 08:10:31;;;;;;;;;;;19.20;99.90;;;;;;5115550;28;19924;-62
2023/08/08 08:12:58;;;;;;;;;;;19.10;99.90;;;;;;5097103;28;19936;-63
2023/08/08 08:15:25;;;;;;;;;;;19.10;99.90;;;;;;5115688;28;19931;-63
2023/08/08 08:17:53;;;;;;;;;;;19.20;99.90;;;;;;5114957;28;19924;-64
2023/08/08 08:20:20;;;;;;;;;;;19.20;99.90;;;;;;5115152;28;19931;-64
2023/08/08 08:22:47;;;;;;;;;;;19.10;99.90;;;;;;5114682;28;19924;-64
2023/08/08 08:25:14;;;;;;;;;;;19.00;99.90;;;;;;5096777;28;19927;-64
2023/08/08 08:27:40;;;;;;;;;;;18.70;99.90;;;;;;5115132;28;19930;-64
2023/08/08 08:30:09;;;;;;;;;;;18.40;99.90;;;;;;5096660;28;19931;-64
2023/08/08 08:32:36;;;;;;;;;;;18.30;99.90;;;;;;5094066;28;19924;-64
2023/08/08 08:35:06;;;;;;;;;;;18.60;99.90;;;;;;5096731;28;19924;-64
2023/08/08 08:37:33;;;;;;;;;;;19.30;99.90;;;;;;5114495;28;19924;-62
2023/08/08 08:39:59;;;;;;;;;;;19.50;99.90;;;;;;5115595;27;20452;-62
2023/08/08 08:42:27;;;;;;;;;;;19.50;99.90;;;;;;5096555;28;19924;-63
2023/08/08 08:44:56;;;;;;;;;;;19.00;99.90;;;;;;5095924;28;19939;-64
2023/08/08 08:47:24;;;;;;;;;;;18.90;99.90;;;;;;5114749;28;19927;-64
2023/08/08 08:49:52;;;;;;;;;;;19.00;99.90;;;;;;5096818;28;19924;-64
2023/08/08 08:52:22;;;;;;;;;;;19.90;99.90;;;;;;5095978;28;19928;-63
2023/08/08 08:54:49;;;;;;;;;;;21.20;99.90;;;;;;5115132;28;20178;-64
2023/08/08 08:57:16;;;;;;;;;;;21.60;99.90;;;;;;5114788;28;19938;-64
2023/08/08 08:59:43;;;;;;;;;;;21.40;99.90;;;;;;5096096;28;19923;-63
2023/08/08 09:02:09;;;;;;;;;;;20.50;99.90;;;;;;5095945;28;19927;-62
2023/08/08 09:04:36;;;;;;;;;;;20.60;99.90;;;;;;5114443;28;19939;-63
2023/08/08 09:07:03;;;;;;;;;;;21.30;99.90;;;;;;5113777;28;20391;-63
2023/08/08 09:09:33;;;;;;;;;;;21.00;99.90;;;;;;5096442;28;19927;-64
2023/08/08 09:12:00;;;;;;;;;;;19.80;99.90;;;;;;5112134;28;19928;-64
2023/08/08 09:14:28;;;;;;;;;;;19.80;99.90;;;;;;5095326;28;19923;-63
2023/08/08 09:16:55;;;;;;;;;;;19.80;99.90;;;;;;5114594;28;19924;-63
2023/08/08 09:19:23;;;;;;;;;;;20.00;99.90;;;;;;5096101;28;19938;-62
2023/08/08 09:21:50;;;;;;;;;;;20.70;99.90;;;;;;5095504;28;20026;-63
2023/08/08 09:24:16;;;;;;;;;;;21.40;99.90;;;;;;5096307;28;20302;-64
2023/08/08 09:26:45;;;;;;;;;;;22.00;99.90;;;;;;5113673;28;19931;-64
2023/08/08 09:29:14;;;;;;;;;;;21.90;99.90;;;;;;5114211;28;19930;-63
2023/08/08 09:31:41;;;;;;;;;;;21.80;99.90;;;;;;5114126;28;19924;-64
2023/08/08 09:34:08;;;;;;;;;;;21.80;99.90;;;;;;5112428;28;19928;-63
2023/08/08 09:36:34;;;;;;;;;;;21.90;99.90;;;;;;5095615;28;20348;-64
2023/08/08 09:39:02;;;;;;;;;;;21.60;99.90;;;;;;5095677;28;20397;-63
2023/08/08 09:41:28;;;;;;;;;;;21.60;99.90;;;;;;5095232;28;19924;-64
2023/08/08 09:43:57;;;;;;;;;;;21.40;99.90;;;;;;5095121;28;19973;-64
2023/08/08 09:46:23;;;;;;;;;;;22.10;99.90;;;;;;5113867;28;20014;-63
2023/08/08 09:48:51;;;;;;;;;;;22.50;99.90;;;;;;5113150;28;20010;-63
2023/08/08 09:51:18;;;;;;;;;;;22.90;99.60;;;;;;5095496;28;20010;-63
2023/08/08 09:53:46;;;;;;;;;;;23.30;99.00;;;;;;5113359;28;19931;-64
2023/08/08 09:56:14;;;;;;;;;;;22.90;98.50;;;;;;5094411;28;19974;-63
2023/08/08 09:58:42;;;;;;;;;;;21.80;99.60;;;;;;5127638;27;19961;-64
2023/08/08 10:01:12;;;;;;;;;;;21.40;99.90;;;;;;5113346;28;19925;-64
2023/08/08 10:03:39;;;;;;;;;;;20.20;99.90;;;;;;5112862;28;20064;-64
2023/08/08 10:06:06;;;;;;;;;;;19.10;99.90;;;;;;5094828;28;20383;-65
2023/08/08 10:08:32;;;;;;;;;;;18.30;99.90;;;;;;5094970;28;20383;-64
2023/08/08 10:10:59;;;;;;;;;;;17.70;99.90;;;;;;5094572;28;20314;-64
2023/08/08 10:13:27;;;;;;;;;;;17.20;99.90;;;;;;5113020;28;19924;-64
2023/08/08 10:15:55;;;;;;;;;;;17.20;99.90;;;;;;5110541;28;19981;-64
2023/08/08 10:18:23;;;;;;;;;;;17.40;99.90;;;;;;5104081;28;19930;-64
2023/08/08 10:20:50;;;;;;;;;;;18.10;99.90;;;;;;5108338;28;19928;-64
2023/08/08 10:23:17;;;;;;;;;;;19.30;99.90;;;;;;5105684;28;19924;-64
2023/08/08 10:25:45;;;;;;;;;;;19.70;99.90;;;;;;5092859;28;19924;-64
2023/08/08 10:28:13;;;;;;;;;;;20.20;99.90;;;;;;5092572;28;19934;-64
2023/08/08 10:30:44;;;;;;;;;;;19.90;99.90;;;;;;5090139;28;20384;-63
2023/08/08 10:33:18;;;;;;;;;;;19.60;99.90;;;;;;5092468;28;20008;-63
2023/08/08 10:35:54;;;;;;;;;;;19.20;99.90;;;;;;5093071;28;19987;-63
2023/08/08 10:38:22;;;;;;;;;;;18.60;99.90;;;;;;5110191;28;19932;-63
2023/08/08 10:40:54;;;;;;;;;;;18.90;99.90;;;;;;5110159;28;20299;-63
2023/08/08 10:43:26;;;;;;;;;;;18.70;99.90;;;;;;5111577;28;19928;-63
2023/08/08 10:45:53;;;;;;;;;;;18.90;99.90;;;;;;5107078;28;19928;-63
2023/08/08 10:48:20;;;;;;;;;;;18.60;99.90;;;;;;5110266;28;19932;-63
2023/08/08 10:50:47;;;;;;;;;;;19.20;99.90;;;;;;5110676;28;20268;-64
2023/08/08 10:53:15;;;;;;;;;;;20.30;99.90;;;;;;5110663;28;19927;-64
2023/08/08 10:55:44;;;;;;;;;;;21.20;99.90;;;;;;5110160;28;20376;-63
2023/08/08 10:58:11;;;;;;;;;;;22.10;99.90;;;;;;5111714;28;19928;-63
2023/08/08 11:00:39;;;;;;;;;;;22.20;99.90;;;;;;5112535;28;19939;-63
2023/08/08 11:03:06;;;;;;;;;;;21.70;99.90;;;;;;5112616;28;19973;-63
2023/08/08 11:05:34;;;;;;;;;;;21.30;99.90;;;;;;5112096;28;19931;-63
2023/08/08 11:08:01;;;;;;;;;;;21.50;99.90;;;;;;5112488;28;19927;-64
2023/08/08 11:10:31;;;;;;;;;;;22.00;99.90;;;;;;5092303;28;20287;-64
2023/08/08 11:12:58;;;;;;;;;;;22.30;99.60;;;;;;5111563;28;19980;-64
2023/08/08 11:15:26;;;;;;;;;;;23.00;99.90;;;;;;5093527;28;19957;-64
2023/08/08 11:17:54;;;;;;;;;;;23.30;98.50;;;;;;5094599;28;19971;-64
2023/08/08 11:20:21;;;;;;;;;;;23.80;96.80;;;;;;5112050;28;19982;-64
2023/08/08 11:22:52;;;;;;;;;;;24.10;96.20;;;;;;5094349;28;19969;-63
2023/08/08 11:25:18;;;;;;;;;;;23.70;96.30;;;;;;5094570;28;20010;-64
2023/08/08 11:27:51;;;;;;;;;;;24.20;96.00;;;;;;5111985;28;19924;-64
2023/08/08 11:30:17;;;;;;;;;;;23.70;94.40;;;;;;5094593;28;19924;-64
2023/08/08 11:32:44;;;;;;;;;;;23.50;94.80;;;;;;5112607;28;19923;-64
2023/08/08 11:35:11;;;;;;;;;;;23.70;95.50;;;;;;5091336;28;19924;-65
2023/08/08 11:37:38;;;;;;;;;;;23.70;94.20;;;;;;5112350;28;19947;-64
2023/08/08 11:40:06;;;;;;;;;;;22.80;94.40;;;;;;5110585;28;19973;-62
2023/08/08 11:42:33;;;;;;;;;;;23.20;94.30;;;;;;5093528;28;20039;-62
2023/08/08 11:45:01;;;;;;;;;;;23.60;94.80;;;;;;5112532;28;20294;-62
2023/08/08 11:47:31;;;;;;;;;;;23.80;93.90;;;;;;5111607;28;19923;-63
2023/08/08 11:49:58;;;;;;;;;;;23.40;94.40;;;;;;5094514;28;19923;-65
2023/08/08 11:52:25;;;;;;;;;;;22.40;94.90;;;;;;5110325;28;19924;-64
2023/08/08 11:54:52;;;;;;;;;;;22.10;95.50;;;;;;5111412;28;19930;-63
2023/08/08 11:57:18;;;;;;;;;;;22.80;95.70;;;;;;5093919;28;19923;-63
2023/08/08 11:59:45;;;;;;;;;;;23.10;94.30;;;;;;5097793;28;19938;-63
2023/08/08 12:02:13;;;;;;;;;;;23.40;93.70;;;;;;5097421;28;19930;-63
2023/08/08 12:04:44;;;;;;;;;;;23.70;94.30;;;;;;5115702;28;19936;-63
2023/08/08 12:07:10;;;;;;;;;;;23.40;93.30;;;;;;5097923;28;19928;-64
2023/08/08 12:09:37;;;;;;;;;;;22.90;93.50;;;;;;5094896;28;19928;-63
2023/08/08 12:12:05;;;;;;;;;;;22.60;94.20;;;;;;5097839;28;19931;-64
2023/08/08 12:14:36;;;;;;;;;;;22.00;95.20;;;;;;5095230;28;19924;-63
2023/08/08 12:17:03;;;;;;;;;;;21.50;96.00;;;;;;5096993;28;19946;-63
2023/08/08 12:19:31;;;;;;;;;;;20.90;99.90;;;;;;5097574;28;19927;-64
2023/08/08 12:21:58;;;;;;;;;;;20.60;99.90;;;;;;5115271;28;19924;-64
2023/08/08 12:24:24;;;;;;;;;;;20.80;99.90;;;;;;5096255;28;19928;-64
2023/08/08 12:26:51;;;;;;;;;;;21.30;99.90;;;;;;5095523;28;19924;-64
2023/08/08 12:29:18;;;;;;;;;;;21.50;99.30;;;;;;5115000;28;20292;-64
2023/08/08 12:31:45;;;;;;;;;;;22.10;98.20;;;;;;5096731;28;20018;-64
2023/08/08 12:34:11;;;;;;;;;;;22.10;97.40;;;;;;5096580;28;19931;-63
2023/08/08 12:36:40;;;;;;;;;;;22.00;97.80;;;;;;5115001;28;19923;-64
2023/08/08 12:39:07;;;;;;;;;;;21.70;98.20;;;;;;5096826;28;19930;-64
2023/08/08 12:41:33;;;;;;;;;;;21.30;98.70;;;;;;5114966;28;19927;-63
2023/08/08 12:44:00;;;;;;;;;;;20.90;99.80;;;;;;5114063;28;19989;-63
2023/08/08 12:46:27;;;;;;;;;;;20.60;99.90;;;;;;5096577;28;19924;-64
2023/08/08 12:48:54;;;;;;;;;;;20.40;99.70;;;;;;5096834;28;20324;-63
2023/08/08 12:51:20;;;;;;;;;;;20.70;99.50;;;;;;5114400;28;19928;-64
2023/08/08 12:53:48;;;;;;;;;;;21.00;99.70;;;;;;5114713;28;20323;-63
2023/08/08 12:56:15;;;;;;;;;;;21.50;98.80;;;;;;5114742;28;19932;-63
2023/08/08 12:58:42;;;;;;;;;;;21.10;98.30;;;;;;5114000;28;19931;-63
2023/08/08 13:01:09;;;;;;;;;;;20.70;98.50;;;;;;5114647;28;19939;-63
2023/08/08 13:03:35;;;;;;;;;;;20.90;98.90;;;;;;5095606;28;20014;-63
2023/08/08 13:06:02;;;;;;;;;;;21.60;98.40;;;;;;5113886;28;19931;-63
2023/08/08 13:08:29;;;;;;;;;;;21.80;97.90;;;;;;5095920;28;19924;-63
2023/08/08 13:10:57;;;;;;;;;;;21.90;96.80;;;;;;5095714;28;19924;-63
2023/08/08 13:13:25;;;;;;;;;;;21.60;97.90;;;;;;5113851;28;19977;-63
2023/08/08 13:15:52;;;;;;;;;;;21.00;98.30;;;;;;5114433;28;19986;-63
2023/08/08 13:18:19;;;;;;;;;;;20.70;98.80;;;;;;5114566;28;20350;-63
2023/08/08 13:20:46;;;;;;;;;;;21.20;98.50;;;;;;5095276;28;19931;-63
2023/08/08 13:23:13;;;;;;;;;;;20.80;98.10;;;;;;5096010;28;19924;-63
2023/08/08 13:25:40;;;;;;;;;;;21.30;98.60;;;;;;5095736;28;19924;-64
2023/08/08 13:28:09;;;;;;;;;;;21.30;98.00;;;;;;5113862;28;19969;-64
2023/08/08 13:30:36;;;;;;;;;;;21.30;98.50;;;;;;5093837;28;20297;-64
2023/08/08 13:33:03;;;;;;;;;;;21.80;97.00;;;;;;5095400;28;19930;-63
2023/08/08 13:35:30;;;;;;;;;;;22.80;96.50;;;;;;5093359;28;19923;-63
2023/08/08 13:37:57;;;;;;;;;;;23.60;95.20;;;;;;5113785;28;20378;-64
2023/08/08 13:40:24;;;;;;;;;;;24.10;93.10;;;;;;5113398;28;20401;-64
2023/08/08 13:42:50;;;;;;;;;;;24.00;92.60;;;;;;5113660;28;19932;-64
2023/08/08 13:45:20;;;;;;;;;;;24.40;92.50;;;;;;5113731;28;19928;-64
2023/08/08 13:47:46;;;;;;;;;;;25.20;92.60;;;;;;5113097;28;19954;-64
2023/08/08 13:50:14;;;;;;;;;;;25.90;91.70;;;;;;5113633;28;19923;-62
2023/08/08 13:52:41;;;;;;;;;;;26.30;91.80;;;;;;5095521;28;20464;-63
2023/08/08 13:55:08;;;;;;;;;;;26.20;91.50;;;;;;5094471;28;19927;-63
2023/08/08 13:57:35;;;;;;;;;;;25.20;90.80;;;;;;5113677;28;19924;-63
2023/08/08 14:00:02;;;;;;;;;;;24.80;91.90;;;;;;5113506;28;20314;-63
2023/08/08 14:02:31;;;;;;;;;;;24.40;92.40;;;;;;5094516;28;19924;-63
2023/08/08 14:04:57;;;;;;;;;;;24.10;92.60;;;;;;5113208;28;20028;-63
2023/08/08 14:07:24;;;;;;;;;;;23.70;93.10;;;;;;5113210;28;19923;-63
2023/08/08 14:09:51;;;;;;;;;;;23.30;92.90;;;;;;5112666;28;19981;-63
2023/08/08 14:12:17;;;;;;;;;;;22.80;93.70;;;;;;5113217;28;19931;-64
2023/08/08 14:14:44;;;;;;;;;;;22.80;93.40;;;;;;5094936;28;19923;-64
2023/08/08 14:17:11;;;;;;;;;;;22.40;93.80;;;;;;5112765;28;19984;-64